Aviation Digital Data Service (ADDS)

Output produced by METARs form (2345 UTC 25 June 2019)
found at http://aviationweather.gov/metar/data/
 
KAEX 252332Z 2600/2624 VRB06KT P6SM VCSH SCT050 BKN090 OVC120 
     FM260100 13005KT P6SM VCSH SCT025 BKN050 
     FM260300 16003KT P6SM BKN100 BKN250 
     FM261000 00000KT 4SM BR FEW018 SCT028 OVC050 
     FM261400 12003KT P6SM SCT028 BKN100